sensor_id;sensor_type;location;lat;lon;timestamp;noise_LAeq;noise_LA_min;noise_LA_max;noise_LA01;noise_LA95
37279;Laerm;7458;49.002;8.472;2023-03-01T00:01:19;64.77;39.21;76.28;;
37279;Laerm;7458;49.002;8.472;2023-03-01T00:03:45;65.20;36.20;76.39;;
37279;Laerm;7458;49.002;8.472;2023-03-01T00:06:11;64.70;38.21;76.62;;
37279;Laerm;7458;49.002;8.472;2023-03-01T00:08:37;64.70;38.21;76.51;;
37279;Laerm;7458;49.002;8.472;2023-03-01T00:11:15;64.51;38.21;76.20;;
37279;Laerm;7458;49.002;8.472;2023-03-01T00:13:44;64.90;38.02;76.03;;
37279;Laerm;7458;49.002;8.472;2023-03-01T00:16:21;61.23;38.21;76.61;;
37279;Laerm;7458;49.002;8.472;2023-03-01T00:18:47;64.76;36.91;76.54;;
37279;Laerm;7458;49.002;8.472;2023-03-01T00:21:13;64.75;38.67;76.92;;
37279;Laerm;7458;49.002;8.472;2023-03-01T00:23:40;65.43;38.21;76.33;;
37279;Laerm;7458;49.002;8.472;2023-03-01T00:26:13;63.90;38.37;76.54;;
37279;Laerm;7458;49.002;8.472;2023-03-01T00:28:39;65.34;38.60;76.31;;
37279;Laerm;7458;49.002;8.472;2023-03-01T00:31:14;65.47;38.95;76.18;;
37279;Laerm;7458;49.002;8.472;2023-03-01T00:33:43;64.75;40.62;76.37;;
37279;Laerm;7458;49.002;8.472;2023-03-01T00:36:13;64.10;38.81;76.92;;
37279;Laerm;7458;49.002;8.472;2023-03-01T00:38:43;47.85;39.92;59.40;;
37279;Laerm;7458;49.002;8.472;2023-03-01T00:41:14;64.87;39.34;76.76;;
37279;Laerm;7458;49.002;8.472;2023-03-01T00:43:41;65.81;38.37;76.34;;
37279;Laerm;7458;49.002;8.472;2023-03-01T00:46:14;64.68;40.53;76.92;;
37279;Laerm;7458;49.002;8.472;2023-03-01T00:48:40;64.82;37.70;76.30;;
37279;Laerm;7458;49.002;8.472;2023-03-01T00:51:18;64.61;38.95;76.47;;
37279;Laerm;7458;49.002;8.472;2023-03-01T00:53:46;65.41;38.95;76.30;;
37279;Laerm;7458;49.002;8.472;2023-03-01T00:56:14;64.99;39.58;76.52;;
37279;Laerm;7458;49.002;8.472;2023-03-01T00:58:42;65.19;40.23;76.42;;
37279;Laerm;7458;49.002;8.472;2023-03-01T01:01:17;65.58;39.34;76.41;;
37279;Laerm;7458;49.002;8.472;2023-03-01T01:03:52;42.57;38.21;45.31;;
37279;Laerm;7458;49.002;8.472;2023-03-01T01:06:25;65.65;37.70;76.70;;
37279;Laerm;7458;49.002;8.472;2023-03-01T01:08:53;65.69;38.37;76.49;;
37279;Laerm;7458;49.002;8.472;2023-03-01T01:11:21;64.44;38.18;76.59;;
37279;Laerm;7458;49.002;8.472;2023-03-01T01:13:49;65.65;38.37;76.36;;
37279;Laerm;7458;49.002;8.472;2023-03-01T01:16:17;64.76;38.60;77.09;;
37279;Laerm;7458;49.002;8.472;2023-03-01T01:18:45;65.77;39.21;76.26;;
37279;Laerm;7458;49.002;8.472;2023-03-01T01:21:18;65.06;40.89;76.58;;
37279;Laerm;7458;49.002;8.472;2023-03-01T01:23:46;65.47;39.81;76.33;;
37279;Laerm;7458;49.002;8.472;2023-03-01T01:26:16;65.47;39.34;76.30;;
37279;Laerm;7458;49.002;8.472;2023-03-01T01:28:42;65.57;39.92;76.18;;
37279;Laerm;7458;49.002;8.472;2023-03-01T01:31:08;64.96;40.03;77.02;;
37279;Laerm;7458;49.002;8.472;2023-03-01T01:33:35;65.68;40.62;76.54;;
37279;Laerm;7458;49.002;8.472;2023-03-01T01:36:01;65.08;39.08;76.54;;
37279;Laerm;7458;49.002;8.472;2023-03-01T01:38:27;65.31;39.92;76.25;;
37279;Laerm;7458;49.002;8.472;2023-03-01T01:40:52;65.72;40.62;76.49;;
37279;Laerm;7458;49.002;8.472;2023-03-01T01:45:58;65.41;40.13;76.41;;
37279;Laerm;7458;49.002;8.472;2023-03-01T01:48:34;64.11;40.03;76.97;;
37279;Laerm;7458;49.002;8.472;2023-03-01T01:51:11;64.98;38.67;76.86;;
37279;Laerm;7458;49.002;8.472;2023-03-01T01:53:39;65.27;39.58;76.53;;
37279;Laerm;7458;49.002;8.472;2023-03-01T01:56:08;65.58;39.70;76.17;;
37279;Laerm;7458;49.002;8.472;2023-03-01T01:58:36;65.54;39.34;76.26;;
37279;Laerm;7458;49.002;8.472;2023-03-01T02:01:03;65.10;39.34;76.67;;
37279;Laerm;7458;49.002;8.472;2023-03-01T02:03:33;65.57;39.08;76.40;;
37279;Laerm;7458;49.002;8.472;2023-03-01T02:06:42;64.32;39.58;76.70;;
37279;Laerm;7458;49.002;8.472;2023-03-01T02:09:14;65.47;39.08;76.76;;
37279;Laerm;7458;49.002;8.472;2023-03-01T02:11:41;64.31;38.81;76.96;;
37279;Laerm;7458;49.002;8.472;2023-03-01T02:14:08;65.41;38.67;76.38;;
37279;Laerm;7458;49.002;8.472;2023-03-01T02:16:35;65.34;37.88;76.36;;
37279;Laerm;7458;49.002;8.472;2023-03-01T02:19:03;64.46;38.67;76.75;;
37279;Laerm;7458;49.002;8.472;2023-03-01T02:22:02;65.02;38.81;76.59;;
37279;Laerm;7458;49.002;8.472;2023-03-01T02:27:33;65.39;38.05;76.71;;
37279;Laerm;7458;49.002;8.472;2023-03-01T02:30:02;65.60;37.70;76.72;;
37279;Laerm;7458;49.002;8.472;2023-03-01T02:32:29;65.53;37.88;76.64;;
37279;Laerm;7458;49.002;8.472;2023-03-01T02:34:56;64.66;38.81;76.72;;
37279;Laerm;7458;49.002;8.472;2023-03-01T02:37:23;65.37;37.52;76.61;;
37279;Laerm;7458;49.002;8.472;2023-03-01T02:39:58;65.16;38.67;76.91;;
37279;Laerm;7458;49.002;8.472;2023-03-01T02:42:36;65.24;40.53;76.46;;
37279;Laerm;7458;49.002;8.472;2023-03-01T02:45:05;65.59;38.37;76.55;;
37279;Laerm;7458;49.002;8.472;2023-03-01T02:47:30;64.91;37.88;76.63;;
37279;Laerm;7458;49.002;8.472;2023-03-01T02:49:56;65.49;37.88;76.77;;
37279;Laerm;7458;49.002;8.472;2023-03-01T02:54:55;65.33;37.88;76.51;;
37279;Laerm;7458;49.002;8.472;2023-03-01T02:57:23;65.51;38.05;76.13;;
37279;Laerm;7458;49.002;8.472;2023-03-01T02:59:51;64.86;38.52;77.10;;
37279;Laerm;7458;49.002;8.472;2023-03-01T03:02:29;65.25;37.88;76.43;;
37279;Laerm;7458;49.002;8.472;2023-03-01T03:07:42;52.24;39.08;71.13;;
37279;Laerm;7458;49.002;8.472;2023-03-01T03:10:14;65.14;36.45;76.37;;
37279;Laerm;7458;49.002;8.472;2023-03-01T03:12:41;65.18;37.70;76.57;;
37279;Laerm;7458;49.002;8.472;2023-03-01T03:15:09;65.51;38.81;76.48;;
37279;Laerm;7458;49.002;8.472;2023-03-01T03:17:40;64.96;40.53;76.94;;
37279;Laerm;7458;49.002;8.472;2023-03-01T03:20:09;65.56;38.52;76.51;;
37279;Laerm;7458;49.002;8.472;2023-03-01T03:22:38;65.63;38.52;76.20;;
37279;Laerm;7458;49.002;8.472;2023-03-01T03:25:07;64.89;39.34;76.83;;
37279;Laerm;7458;49.002;8.472;2023-03-01T03:27:39;65.17;41.82;76.32;;
37279;Laerm;7458;49.002;8.472;2023-03-01T03:30:07;65.23;38.37;76.74;;
37279;Laerm;7458;49.002;8.472;2023-03-01T03:32:36;65.55;37.70;76.19;;
37279;Laerm;7458;49.002;8.472;2023-03-01T03:35:07;65.49;38.52;76.48;;
37279;Laerm;7458;49.002;8.472;2023-03-01T03:37:39;65.24;38.05;77.06;;
37279;Laerm;7458;49.002;8.472;2023-03-01T03:40:26;65.09;38.05;76.22;;
37279;Laerm;7458;49.002;8.472;2023-03-01T03:42:52;65.68;38.67;76.64;;
37279;Laerm;7458;49.002;8.472;2023-03-01T03:45:18;63.73;39.21;76.75;;
37279;Laerm;7458;49.002;8.472;2023-03-01T03:47:44;65.53;37.52;76.78;;
37279;Laerm;7458;49.002;8.472;2023-03-01T03:50:16;65.17;39.08;76.72;;
37279;Laerm;7458;49.002;8.472;2023-03-01T03:52:42;65.27;36.91;76.85;;
37279;Laerm;7458;49.002;8.472;2023-03-01T03:55:11;65.74;37.12;76.14;;
37279;Laerm;7458;49.002;8.472;2023-03-01T03:57:39;65.08;38.21;77.03;;
37279;Laerm;7458;49.002;8.472;2023-03-01T04:00:11;65.26;40.80;76.85;;
37279;Laerm;7458;49.002;8.472;2023-03-01T04:02:43;64.93;39.21;76.67;;
37279;Laerm;7458;49.002;8.472;2023-03-01T04:05:11;65.81;37.70;76.42;;
37279;Laerm;7458;49.002;8.472;2023-03-01T04:07:38;64.87;39.34;77.20;;
37279;Laerm;7458;49.002;8.472;2023-03-01T04:10:07;65.36;39.81;76.56;;
37279;Laerm;7458;49.002;8.472;2023-03-01T04:12:34;65.11;40.71;76.52;;
37279;Laerm;7458;49.002;8.472;2023-03-01T04:15:01;65.38;39.58;76.79;;
37279;Laerm;7458;49.002;8.472;2023-03-01T04:17:28;65.22;40.23;76.61;;
37279;Laerm;7458;49.002;8.472;2023-03-01T04:19:54;61.79;40.43;77.00;;
37279;Laerm;7458;49.002;8.472;2023-03-01T04:22:20;65.87;40.71;76.45;;
37279;Laerm;7458;49.002;8.472;2023-03-01T04:24:45;65.34;41.46;76.90;;
37279;Laerm;7458;49.002;8.472;2023-03-01T04:27:11;65.33;39.92;76.91;;
37279;Laerm;7458;49.002;8.472;2023-03-01T04:29:37;65.42;40.08;76.93;;
37279;Laerm;7458;49.002;8.472;2023-03-01T04:32:03;65.11;40.89;76.73;;
37279;Laerm;7458;49.002;8.472;2023-03-01T04:34:29;65.71;42.09;76.24;;
37279;Laerm;7458;49.002;8.472;2023-03-01T04:36:55;65.40;40.89;76.48;;
37279;Laerm;7458;49.002;8.472;2023-03-01T04:39:21;65.29;41.06;76.47;;
37279;Laerm;7458;49.002;8.472;2023-03-01T04:41:47;65.61;41.68;76.27;;
37279;Laerm;7458;49.002;8.472;2023-03-01T04:44:13;65.59;41.46;76.48;;
37279;Laerm;7458;49.002;8.472;2023-03-01T04:46:39;65.82;42.53;77.19;;
37279;Laerm;7458;49.002;8.472;2023-03-01T04:49:05;65.26;41.89;76.77;;
37279;Laerm;7458;49.002;8.472;2023-03-01T04:51:31;65.66;41.96;76.52;;
37279;Laerm;7458;49.002;8.472;2023-03-01T04:54:00;65.56;41.68;76.41;;
37279;Laerm;7458;49.002;8.472;2023-03-01T04:56:26;64.26;42.29;77.24;;
37279;Laerm;7458;49.002;8.472;2023-03-01T04:58:53;65.30;41.89;76.61;;
37279;Laerm;7458;49.002;8.472;2023-03-01T05:01:20;65.40;41.22;76.77;;
37279;Laerm;7458;49.002;8.472;2023-03-01T05:03:51;65.55;42.65;76.47;;
37279;Laerm;7458;49.002;8.472;2023-03-01T05:06:18;65.38;41.68;76.89;;
37279;Laerm;7458;49.002;8.472;2023-03-01T05:08:44;65.66;41.82;76.02;;
37279;Laerm;7458;49.002;8.472;2023-03-01T05:11:10;66.17;42.41;76.36;;
37279;Laerm;7458;49.002;8.472;2023-03-01T05:13:38;64.29;42.88;76.87;;
37279;Laerm;7458;49.002;8.472;2023-03-01T05:16:06;64.92;43.44;77.17;;
37279;Laerm;7458;49.002;8.472;2023-03-01T05:18:33;65.35;42.16;77.02;;
37279;Laerm;7458;49.002;8.472;2023-03-01T05:21:09;65.27;42.65;76.96;;
37279;Laerm;7458;49.002;8.472;2023-03-01T05:23:36;65.48;42.22;76.71;;
37279;Laerm;7458;49.002;8.472;2023-03-01T05:26:05;65.41;43.39;76.76;;
37279;Laerm;7458;49.002;8.472;2023-03-01T05:28:32;65.11;42.22;77.06;;
37279;Laerm;7458;49.002;8.472;2023-03-01T05:30:58;65.37;42.41;76.74;;
37279;Laerm;7458;49.002;8.472;2023-03-01T05:33:25;65.90;43.39;81.50;;
37279;Laerm;7458;49.002;8.472;2023-03-01T05:35:52;65.46;43.58;76.13;;
37279;Laerm;7458;49.002;8.472;2023-03-01T05:38:20;64.83;43.39;76.58;;
37279;Laerm;7458;49.002;8.472;2023-03-01T05:40:48;64.35;43.19;76.98;;
37279;Laerm;7458;49.002;8.472;2023-03-01T05:43:16;65.48;43.49;76.83;;
37279;Laerm;7458;49.002;8.472;2023-03-01T05:45:43;65.30;43.68;76.69;;
37279;Laerm;7458;49.002;8.472;2023-03-01T05:48:11;65.12;42.93;76.68;;
37279;Laerm;7458;49.002;8.472;2023-03-01T05:50:41;65.40;42.82;76.33;;
37279;Laerm;7458;49.002;8.472;2023-03-01T05:53:16;65.23;42.41;76.70;;
37279;Laerm;7458;49.002;8.472;2023-03-01T05:55:43;65.41;43.72;76.81;;
37279;Laerm;7458;49.002;8.472;2023-03-01T05:58:15;65.47;43.51;76.58;;
37279;Laerm;7458;49.002;8.472;2023-03-01T06:00:43;65.30;43.81;76.85;;
37279;Laerm;7458;49.002;8.472;2023-03-01T06:03:12;65.35;43.14;76.88;;
37279;Laerm;7458;49.002;8.472;2023-03-01T06:05:39;65.07;44.19;76.54;;
37279;Laerm;7458;49.002;8.472;2023-03-01T06:08:06;65.93;43.90;76.47;;
37279;Laerm;7458;49.002;8.472;2023-03-01T06:10:32;65.06;42.76;76.84;;
37279;Laerm;7458;49.002;8.472;2023-03-01T06:12:58;66.01;43.58;79.49;;
37279;Laerm;7458;49.002;8.472;2023-03-01T06:15:25;65.40;43.77;77.45;;
37279;Laerm;7458;49.002;8.472;2023-03-01T06:17:53;65.13;43.44;76.84;;
37279;Laerm;7458;49.002;8.472;2023-03-01T06:20:24;65.46;43.63;76.74;;
37279;Laerm;7458;49.002;8.472;2023-03-01T06:22:50;65.34;43.97;76.40;;
37279;Laerm;7458;49.002;8.472;2023-03-01T06:25:22;65.95;45.01;77.56;;
37279;Laerm;7458;49.002;8.472;2023-03-01T06:27:49;65.94;43.34;77.52;;
37279;Laerm;7458;49.002;8.472;2023-03-01T06:30:18;65.32;43.77;76.82;;
37279;Laerm;7458;49.002;8.472;2023-03-01T06:32:44;65.56;44.19;76.51;;
37279;Laerm;7458;49.002;8.472;2023-03-01T06:35:12;65.83;45.80;76.59;;
37279;Laerm;7458;49.002;8.472;2023-03-01T06:37:48;65.47;45.30;76.60;;
37279;Laerm;7458;49.002;8.472;2023-03-01T06:40:15;65.31;45.54;76.76;;
37279;Laerm;7458;49.002;8.472;2023-03-01T06:42:44;65.24;44.35;76.81;;
37279;Laerm;7458;49.002;8.472;2023-03-01T06:45:12;65.63;44.15;76.38;;
37279;Laerm;7458;49.002;8.472;2023-03-01T06:47:38;65.45;43.99;76.83;;
37279;Laerm;7458;49.002;8.472;2023-03-01T06:50:05;65.49;45.01;76.64;;
37279;Laerm;7458;49.002;8.472;2023-03-01T06:52:31;66.15;45.36;76.90;;
37279;Laerm;7458;49.002;8.472;2023-03-01T06:54:57;65.39;44.23;77.12;;
37279;Laerm;7458;49.002;8.472;2023-03-01T06:57:22;66.62;44.08;81.32;;
37279;Laerm;7458;49.002;8.472;2023-03-01T06:59:48;64.21;43.81;76.68;;
37279;Laerm;7458;49.002;8.472;2023-03-01T07:02:15;64.73;43.24;79.93;;
37279;Laerm;7458;49.002;8.472;2023-03-01T07:04:41;63.01;43.77;76.58;;
37279;Laerm;7458;49.002;8.472;2023-03-01T07:07:08;58.90;43.24;76.11;;
37279;Laerm;7458;49.002;8.472;2023-03-01T07:09:34;63.91;42.47;75.17;;
37279;Laerm;7458;49.002;8.472;2023-03-01T07:12:00;55.84;42.59;76.42;;
37279;Laerm;7458;49.002;8.472;2023-03-01T07:14:27;54.86;44.15;70.76;;
37279;Laerm;7458;49.002;8.472;2023-03-01T07:16:53;56.81;42.41;73.39;;
37279;Laerm;7458;49.002;8.472;2023-03-01T07:19:20;54.46;42.47;72.74;;
37279;Laerm;7458;49.002;8.472;2023-03-01T07:21:46;56.62;42.82;73.26;;
37279;Laerm;7458;49.002;8.472;2023-03-01T07:24:12;48.48;42.16;58.38;;
37279;Laerm;7458;49.002;8.472;2023-03-01T07:26:37;53.63;43.09;69.50;;
37279;Laerm;7458;49.002;8.472;2023-03-01T07:29:06;50.25;42.82;65.93;;
37279;Laerm;7458;49.002;8.472;2023-03-01T07:31:33;50.99;42.71;65.72;;
37279;Laerm;7458;49.002;8.472;2023-03-01T07:33:59;50.80;42.35;72.98;;
37279;Laerm;7458;49.002;8.472;2023-03-01T07:36:27;58.52;43.77;77.85;;
37279;Laerm;7458;49.002;8.472;2023-03-01T07:38:53;56.98;42.88;70.93;;
37279;Laerm;7458;49.002;8.472;2023-03-01T07:41:21;57.87;42.47;71.68;;
37279;Laerm;7458;49.002;8.472;2023-03-01T07:43:47;48.22;42.29;62.52;;
37279;Laerm;7458;49.002;8.472;2023-03-01T07:46:13;55.26;41.61;73.22;;
37279;Laerm;7458;49.002;8.472;2023-03-01T07:48:38;62.91;42.65;79.88;;
37279;Laerm;7458;49.002;8.472;2023-03-01T07:51:06;56.25;42.16;69.95;;
37279;Laerm;7458;49.002;8.472;2023-03-01T07:53:32;54.92;41.96;71.73;;
37279;Laerm;7458;49.002;8.472;2023-03-01T07:56:05;56.88;43.09;74.22;;
37279;Laerm;7458;49.002;8.472;2023-03-01T07:58:33;56.48;42.16;73.82;;
37279;Laerm;7458;49.002;8.472;2023-03-01T08:01:06;53.81;41.96;70.47;;
37279;Laerm;7458;49.002;8.472;2023-03-01T08:03:33;55.47;42.65;74.13;;
37279;Laerm;7458;49.002;8.472;2023-03-01T08:06:05;53.70;42.09;72.05;;
37279;Laerm;7458;49.002;8.472;2023-03-01T08:08:32;53.16;42.93;71.25;;
37279;Laerm;7458;49.002;8.472;2023-03-01T08:11:00;55.68;41.61;74.75;;
37279;Laerm;7458;49.002;8.472;2023-03-01T08:13:26;53.61;41.88;70.14;;
37279;Laerm;7458;49.002;8.472;2023-03-01T08:15:52;54.92;41.82;74.00;;
37279;Laerm;7458;49.002;8.472;2023-03-01T08:18:20;64.71;42.35;83.73;;
37279;Laerm;7458;49.002;8.472;2023-03-01T08:20:47;52.47;42.41;68.65;;
37279;Laerm;7458;49.002;8.472;2023-03-01T08:23:13;51.45;41.46;71.35;;
37279;Laerm;7458;49.002;8.472;2023-03-01T08:25:39;54.27;41.30;73.91;;
37279;Laerm;7458;49.002;8.472;2023-03-01T08:28:05;48.10;42.53;58.31;;
37279;Laerm;7458;49.002;8.472;2023-03-01T08:30:32;52.64;41.75;70.27;;
37279;Laerm;7458;49.002;8.472;2023-03-01T08:32:57;61.85;41.14;79.91;;
37279;Laerm;7458;49.002;8.472;2023-03-01T08:35:23;52.44;41.82;71.20;;
37279;Laerm;7458;49.002;8.472;2023-03-01T08:37:49;52.87;43.49;69.20;;
37279;Laerm;7458;49.002;8.472;2023-03-01T08:40:15;54.77;42.47;71.89;;
37279;Laerm;7458;49.002;8.472;2023-03-01T08:42:41;61.24;42.76;84.85;;
37279;Laerm;7458;49.002;8.472;2023-03-01T08:45:11;51.46;42.03;68.08;;
37279;Laerm;7458;49.002;8.472;2023-03-01T08:47:39;55.99;40.62;73.80;;
37279;Laerm;7458;49.002;8.472;2023-03-01T08:50:06;54.90;42.71;69.32;;
37279;Laerm;7458;49.002;8.472;2023-03-01T08:52:33;51.76;40.53;73.67;;
37279;Laerm;7458;49.002;8.472;2023-03-01T08:54:59;54.39;42.53;71.73;;
37279;Laerm;7458;49.002;8.472;2023-03-01T08:57:26;55.67;40.43;74.85;;
37279;Laerm;7458;49.002;8.472;2023-03-01T08:59:52;53.17;43.39;69.10;;
37279;Laerm;7458;49.002;8.472;2023-03-01T09:02:18;54.28;41.38;72.59;;
37279;Laerm;7458;49.002;8.472;2023-03-01T09:04:44;54.70;42.09;70.10;;
37279;Laerm;7458;49.002;8.472;2023-03-01T09:07:10;52.85;41.82;66.59;;
37279;Laerm;7458;49.002;8.472;2023-03-01T09:09:37;54.12;41.96;69.49;;
37279;Laerm;7458;49.002;8.472;2023-03-01T09:12:03;53.23;42.29;69.69;;
37279;Laerm;7458;49.002;8.472;2023-03-01T09:14:29;56.35;42.88;73.85;;
37279;Laerm;7458;49.002;8.472;2023-03-01T09:16:55;52.45;43.19;69.80;;
37279;Laerm;7458;49.002;8.472;2023-03-01T09:19:21;53.70;41.96;69.62;;
37279;Laerm;7458;49.002;8.472;2023-03-01T09:21:47;48.51;42.29;59.85;;
37279;Laerm;7458;49.002;8.472;2023-03-01T09:24:21;51.96;42.65;66.62;;
37279;Laerm;7458;49.002;8.472;2023-03-01T09:26:48;50.98;44.23;65.57;;
37279;Laerm;7458;49.002;8.472;2023-03-01T09:29:15;47.43;39.92;59.91;;
37279;Laerm;7458;49.002;8.472;2023-03-01T09:31:42;54.50;39.92;73.63;;
37279;Laerm;7458;49.002;8.472;2023-03-01T09:34:09;51.45;41.75;72.46;;
37279;Laerm;7458;49.002;8.472;2023-03-01T09:36:35;52.66;41.75;70.32;;
37279;Laerm;7458;49.002;8.472;2023-03-01T09:39:03;53.14;46.52;70.50;;
37279;Laerm;7458;49.002;8.472;2023-03-01T09:47:02;53.01;42.16;67.55;;
37279;Laerm;7458;49.002;8.472;2023-03-01T09:49:35;52.51;42.35;69.97;;
37279;Laerm;7458;49.002;8.472;2023-03-01T09:52:28;50.49;42.41;65.90;;
37279;Laerm;7458;49.002;8.472;2023-03-01T09:54:56;49.63;43.49;63.30;;
37279;Laerm;7458;49.002;8.472;2023-03-01T09:57:54;50.70;41.61;68.70;;
37279;Laerm;7458;49.002;8.472;2023-03-01T10:02:59;53.81;42.76;72.53;;
37279;Laerm;7458;49.002;8.472;2023-03-01T10:05:59;51.78;41.38;72.09;;
37279;Laerm;7458;49.002;8.472;2023-03-01T10:08:46;53.09;42.98;69.67;;
37279;Laerm;7458;49.002;8.472;2023-03-01T10:11:21;53.59;43.09;69.13;;
37279;Laerm;7458;49.002;8.472;2023-03-01T10:13:58;51.39;43.04;65.45;;
37279;Laerm;7458;49.002;8.472;2023-03-01T10:19:39;53.60;42.59;71.47;;
37279;Laerm;7458;49.002;8.472;2023-03-01T10:22:24;50.98;41.61;71.40;;
37279;Laerm;7458;49.002;8.472;2023-03-01T10:25:03;55.11;42.53;73.08;;
37279;Laerm;7458;49.002;8.472;2023-03-01T10:27:53;57.88;42.16;74.36;;
37279;Laerm;7458;49.002;8.472;2023-03-01T10:30:22;59.23;41.82;73.64;;
37279;Laerm;7458;49.002;8.472;2023-03-01T10:32:56;56.59;40.43;73.25;;
37279;Laerm;7458;49.002;8.472;2023-03-01T10:35:34;53.93;41.46;72.53;;
37279;Laerm;7458;49.002;8.472;2023-03-01T10:38:09;62.50;42.13;82.22;;
37279;Laerm;7458;49.002;8.472;2023-03-01T10:40:50;49.41;42.16;65.58;;
37279;Laerm;7458;49.002;8.472;2023-03-01T10:43:16;50.22;42.88;66.47;;
37279;Laerm;7458;49.002;8.472;2023-03-01T10:45:42;50.57;42.93;68.72;;
37279;Laerm;7458;49.002;8.472;2023-03-01T10:48:16;54.27;42.59;72.12;;
37279;Laerm;7458;49.002;8.472;2023-03-01T10:50:50;52.53;41.75;68.60;;
37279;Laerm;7458;49.002;8.472;2023-03-01T10:53:24;61.05;42.29;81.68;;
37279;Laerm;7458;49.002;8.472;2023-03-01T10:56:05;50.19;41.61;64.45;;
37279;Laerm;7458;49.002;8.472;2023-03-01T10:58:34;50.50;42.65;68.50;;
37279;Laerm;7458;49.002;8.472;2023-03-01T11:01:30;47.84;42.22;57.77;;
37279;Laerm;7458;49.002;8.472;2023-03-01T11:06:34;53.72;42.29;73.65;;
37279;Laerm;7458;49.002;8.472;2023-03-01T11:09:31;50.49;42.22;69.21;;
37279;Laerm;7458;49.002;8.472;2023-03-01T11:12:11;54.44;41.89;72.96;;
37279;Laerm;7458;49.002;8.472;2023-03-01T11:14:48;49.12;41.61;68.07;;
37279;Laerm;7458;49.002;8.472;2023-03-01T11:17:26;50.39;41.46;68.72;;
37279;Laerm;7458;49.002;8.472;2023-03-01T11:22:56;48.76;39.92;64.30;;
37279;Laerm;7458;49.002;8.472;2023-03-01T11:25:40;56.45;42.59;81.65;;
37279;Laerm;7458;49.002;8.472;2023-03-01T11:28:15;56.71;43.39;72.62;;
37279;Laerm;7458;49.002;8.472;2023-03-01T11:33:41;55.34;42.09;73.20;;
37279;Laerm;7458;49.002;8.472;2023-03-01T11:39:03;60.58;44.76;75.33;;
37279;Laerm;7458;49.002;8.472;2023-03-01T11:41:34;58.74;43.19;73.08;;
37279;Laerm;7458;49.002;8.472;2023-03-01T11:44:12;57.74;41.06;72.78;;
37279;Laerm;7458;49.002;8.472;2023-03-01T11:49:59;57.81;41.22;72.95;;
37279;Laerm;7458;49.002;8.472;2023-03-01T11:55:29;57.50;42.03;73.02;;
37279;Laerm;7458;49.002;8.472;2023-03-01T12:06:52;58.83;42.22;72.82;;
37279;Laerm;7458;49.002;8.472;2023-03-01T12:21:53;61.70;42.41;85.83;;
37279;Laerm;7458;49.002;8.472;2023-03-01T12:30:41;57.55;41.06;76.25;;
37279;Laerm;7458;49.002;8.472;2023-03-01T12:33:50;53.63;41.75;70.18;;
37279;Laerm;7458;49.002;8.472;2023-03-01T12:36:40;52.96;42.09;72.00;;
37279;Laerm;7458;49.002;8.472;2023-03-01T12:39:23;53.75;41.61;71.77;;
37279;Laerm;7458;49.002;8.472;2023-03-01T12:42:05;56.00;43.99;73.53;;
37279;Laerm;7458;49.002;8.472;2023-03-01T12:45:05;54.85;40.80;70.10;;
37279;Laerm;7458;49.002;8.472;2023-03-01T12:50:40;52.06;41.89;66.62;;
37279;Laerm;7458;49.002;8.472;2023-03-01T12:53:29;50.78;41.61;72.59;;
37279;Laerm;7458;49.002;8.472;2023-03-01T12:56:09;53.70;43.14;69.49;;
37279;Laerm;7458;49.002;8.472;2023-03-01T12:59:01;50.99;41.14;74.49;;
37279;Laerm;7458;49.002;8.472;2023-03-01T13:02:23;56.07;42.65;74.29;;
37279;Laerm;7458;49.002;8.472;2023-03-01T13:08:27;53.71;42.53;68.22;;
37279;Laerm;7458;49.002;8.472;2023-03-01T13:11:01;56.53;45.69;75.32;;
37279;Laerm;7458;49.002;8.472;2023-03-01T13:13:30;58.97;45.46;75.31;;
37279;Laerm;7458;49.002;8.472;2023-03-01T13:15:57;52.74;42.53;72.10;;
37279;Laerm;7458;49.002;8.472;2023-03-01T13:18:42;53.52;42.47;69.06;;
37279;Laerm;7458;49.002;8.472;2023-03-01T13:21:08;54.93;39.92;71.69;;
37279;Laerm;7458;49.002;8.472;2023-03-01T13:23:38;52.69;42.65;71.95;;
37279;Laerm;7458;49.002;8.472;2023-03-01T13:26:05;50.73;43.58;72.00;;
37279;Laerm;7458;49.002;8.472;2023-03-01T13:33:59;53.16;42.41;72.34;;
37279;Laerm;7458;49.002;8.472;2023-03-01T13:38:59;54.54;41.75;70.64;;
37279;Laerm;7458;49.002;8.472;2023-03-01T13:44:34;49.70;43.09;63.65;;
37279;Laerm;7458;49.002;8.472;2023-03-01T13:49:49;53.27;46.76;70.22;;
37279;Laerm;7458;49.002;8.472;2023-03-01T13:52:48;51.88;41.75;68.27;;
37279;Laerm;7458;49.002;8.472;2023-03-01T13:55:16;48.97;41.61;76.78;;
37279;Laerm;7458;49.002;8.472;2023-03-01T13:57:50;54.55;43.68;70.84;;
37279;Laerm;7458;49.002;8.472;2023-03-01T14:00:32;55.20;43.99;73.57;;
37279;Laerm;7458;49.002;8.472;2023-03-01T14:03:11;53.43;42.65;70.38;;
37279;Laerm;7458;49.002;8.472;2023-03-01T14:05:39;55.42;45.54;73.52;;
37279;Laerm;7458;49.002;8.472;2023-03-01T14:08:19;51.65;41.89;74.92;;
37279;Laerm;7458;49.002;8.472;2023-03-01T14:17:09;53.00;42.71;68.48;;
37279;Laerm;7458;49.002;8.472;2023-03-01T14:19:40;53.98;42.76;68.08;;
37279;Laerm;7458;49.002;8.472;2023-03-01T14:22:20;50.81;42.98;67.48;;
37279;Laerm;7458;49.002;8.472;2023-03-01T14:25:31;60.08;43.68;93.73;;
37279;Laerm;7458;49.002;8.472;2023-03-01T14:28:18;56.17;41.96;84.56;;
37279;Laerm;7458;49.002;8.472;2023-03-01T14:30:51;52.27;43.44;68.28;;
37279;Laerm;7458;49.002;8.472;2023-03-01T14:33:31;54.00;42.35;74.17;;
37279;Laerm;7458;49.002;8.472;2023-03-01T14:36:10;53.52;42.09;78.39;;
37279;Laerm;7458;49.002;8.472;2023-03-01T14:38:41;50.37;42.82;73.95;;
37279;Laerm;7458;49.002;8.472;2023-03-01T14:41:19;53.16;42.98;72.78;;
37279;Laerm;7458;49.002;8.472;2023-03-01T14:43:51;52.26;42.47;74.87;;
37279;Laerm;7458;49.002;8.472;2023-03-01T14:46:41;51.50;43.72;69.19;;
37279;Laerm;7458;49.002;8.472;2023-03-01T14:49:19;49.77;42.59;68.37;;
37279;Laerm;7458;49.002;8.472;2023-03-01T14:52:08;52.72;42.88;69.64;;
37279;Laerm;7458;49.002;8.472;2023-03-01T14:54:54;53.32;43.49;74.57;;
37279;Laerm;7458;49.002;8.472;2023-03-01T14:57:23;54.35;43.14;72.87;;
37279;Laerm;7458;49.002;8.472;2023-03-01T14:59:54;57.16;43.28;78.64;;
37279;Laerm;7458;49.002;8.472;2023-03-01T15:02:26;52.46;43.94;71.54;;
37279;Laerm;7458;49.002;8.472;2023-03-01T15:04:56;52.25;43.49;68.88;;
37279;Laerm;7458;49.002;8.472;2023-03-01T15:07:30;51.31;43.04;66.00;;
37279;Laerm;7458;49.002;8.472;2023-03-01T15:09:59;58.73;42.88;75.88;;
37279;Laerm;7458;49.002;8.472;2023-03-01T15:14:56;51.17;43.04;66.40;;
37279;Laerm;7458;49.002;8.472;2023-03-01T15:17:35;51.23;43.54;62.58;;
37279;Laerm;7458;49.002;8.472;2023-03-01T15:20:15;56.47;44.31;77.01;;
37279;Laerm;7458;49.002;8.472;2023-03-01T15:22:44;54.39;42.98;70.35;;
37279;Laerm;7458;49.002;8.472;2023-03-01T15:25:19;62.05;45.48;81.54;;
37279;Laerm;7458;49.002;8.472;2023-03-01T15:27:48;55.76;43.09;74.01;;
37279;Laerm;7458;49.002;8.472;2023-03-01T15:30:32;53.14;42.71;81.00;;
37279;Laerm;7458;49.002;8.472;2023-03-01T15:33:39;56.19;43.34;75.15;;
37279;Laerm;7458;49.002;8.472;2023-03-01T15:39:00;55.01;42.24;69.24;;
37279;Laerm;7458;49.002;8.472;2023-03-01T15:41:46;53.17;43.14;68.59;;
37279;Laerm;7458;49.002;8.472;2023-03-01T15:44:26;48.97;42.09;60.91;;
37279;Laerm;7458;49.002;8.472;2023-03-01T15:46:52;56.91;43.90;71.83;;
37279;Laerm;7458;49.002;8.472;2023-03-01T15:49:42;53.24;43.04;73.87;;
37279;Laerm;7458;49.002;8.472;2023-03-01T15:52:20;54.88;43.49;73.73;;
37279;Laerm;7458;49.002;8.472;2023-03-01T15:54:47;53.62;43.99;76.16;;
37279;Laerm;7458;49.002;8.472;2023-03-01T15:57:16;56.90;43.19;71.86;;
37279;Laerm;7458;49.002;8.472;2023-03-01T15:59:42;54.82;43.94;67.88;;